createdAt,value
2022-11-11T00:00:05.482Z,1.30
2022-11-11T00:03:09.654Z,1.38
2022-11-11T00:06:15.224Z,1.20
2022-11-11T00:09:18.735Z,1.30
2022-11-11T00:12:27.192Z,1.20
2022-11-11T00:15:32.393Z,1.00
2022-11-11T00:18:56.032Z,1.13
2022-11-11T00:22:18.958Z,1.20
2022-11-11T00:25:23.259Z,1.25
2022-11-11T00:28:27.790Z,1.20
2022-11-11T00:31:31.809Z,1.10
2022-11-11T00:34:35.738Z,1.00
2022-11-11T00:37:40.617Z,1.00
2022-11-11T00:40:44.675Z,1.30
2022-11-11T00:43:48.408Z,1.00
2022-11-11T00:47:11.076Z,1.00
2022-11-11T00:50:38.492Z,1.05
2022-11-11T00:53:42.617Z,1.38
2022-11-11T00:56:46.396Z,1.20
2022-11-11T00:59:49.957Z,0.80
2022-11-11T01:02:54.024Z,1.02
2022-11-11T01:06:02.036Z,1.10
2022-11-11T01:09:07.050Z,1.20
2022-11-11T01:12:10.814Z,1.10
2022-11-11T01:15:14.843Z,0.90
2022-11-11T01:18:22.257Z,1.08
2022-11-11T01:21:26.377Z,1.20
2022-11-11T01:24:30.777Z,0.93
2022-11-11T01:27:34.637Z,1.13
2022-11-11T01:30:38.835Z,1.00
2022-11-11T01:33:42.872Z,0.90
2022-11-11T01:36:46.960Z,1.00
2022-11-11T01:39:51.526Z,1.00
2022-11-11T01:43:05.015Z,1.00
2022-11-11T01:46:16.573Z,1.00
2022-11-11T01:49:39.119Z,1.00
2022-11-11T01:52:43.159Z,1.35
2022-11-11T01:55:47.500Z,0.93
2022-11-11T01:58:53.946Z,1.10
2022-11-11T02:01:57.971Z,1.10
2022-11-11T02:05:22.279Z,1.00
2022-11-11T02:08:34.864Z,0.85
2022-11-11T02:11:59.574Z,1.00
2022-11-11T02:15:04.125Z,1.27
2022-11-11T02:18:08.516Z,1.00
2022-11-11T02:21:14.843Z,1.00
2022-11-11T02:24:20.745Z,1.00
2022-11-11T02:27:26.217Z,1.10
2022-11-11T02:30:30.155Z,1.00
2022-11-11T02:33:34.329Z,0.80
2022-11-11T02:36:38.811Z,0.75
2022-11-11T02:40:05.880Z,0.93
2022-11-11T02:43:10.079Z,0.80
2022-11-11T02:46:14.943Z,1.00
2022-11-11T02:49:18.742Z,0.80
2022-11-11T02:52:23.047Z,1.00
2022-11-11T02:55:27.045Z,0.85
2022-11-11T02:58:31.318Z,1.02
2022-11-11T03:01:35.573Z,0.98
2022-11-11T03:04:39.864Z,0.70
2022-11-11T03:07:44.117Z,0.77
2022-11-11T03:10:48.387Z,0.70
2022-11-11T03:13:52.436Z,0.80
2022-11-11T03:17:15.430Z,0.90
2022-11-11T03:20:38.153Z,0.80
2022-11-11T03:23:42.291Z,1.05
2022-11-11T03:26:46.729Z,0.98
2022-11-11T03:29:50.962Z,1.00
2022-11-11T03:32:54.865Z,0.90
2022-11-11T03:35:58.679Z,0.77
2022-11-11T03:39:03.493Z,0.80
2022-11-11T03:42:07.442Z,1.00
2022-11-11T03:45:11.194Z,0.90
2022-11-11T03:48:15.394Z,0.85
2022-11-11T03:51:19.467Z,0.70
2022-11-11T03:54:23.601Z,0.90
2022-11-11T03:57:30.664Z,0.73
2022-11-11T04:00:34.744Z,1.00
2022-11-11T04:03:57.512Z,0.90
2022-11-11T04:07:20.479Z,0.90
2022-11-11T04:10:24.590Z,0.90
2022-11-11T04:13:47.276Z,1.00
2022-11-11T04:16:51.566Z,0.70
2022-11-11T04:20:14.250Z,1.02
2022-11-11T04:23:18.422Z,0.70
2022-11-11T04:26:22.182Z,0.90
2022-11-11T04:29:28.847Z,0.90
2022-11-11T04:32:35.682Z,0.80
2022-11-11T04:35:39.755Z,0.80
2022-11-11T04:39:02.763Z,0.70
2022-11-11T04:42:08.613Z,0.90
2022-11-11T04:45:31.794Z,0.80
2022-11-11T04:48:36.381Z,1.00
2022-11-11T04:51:58.788Z,0.80
2022-11-11T04:55:22.298Z,0.77
2022-11-11T04:58:27.114Z,0.77
2022-11-11T05:01:50.296Z,0.80
2022-11-11T05:04:54.468Z,0.68
2022-11-11T05:08:17.363Z,0.73
2022-11-11T05:11:24.530Z,0.70
2022-11-11T05:14:47.052Z,0.82
2022-11-11T05:18:09.637Z,0.70
2022-11-11T05:21:27.602Z,0.70
2022-11-11T05:24:50.546Z,0.80
2022-11-11T05:27:55.338Z,0.90
2022-11-11T05:30:59.249Z,0.90
2022-11-11T05:34:03.120Z,0.73
2022-11-11T05:37:06.998Z,0.70
2022-11-11T05:40:11.539Z,0.55
2022-11-11T05:43:15.334Z,0.70
2022-11-11T05:46:19.229Z,0.70
2022-11-11T05:49:23.835Z,0.77
2022-11-11T05:52:27.793Z,0.80
2022-11-11T05:55:31.922Z,0.75
2022-11-11T05:58:35.777Z,0.93
2022-11-11T06:01:39.937Z,0.82
2022-11-11T06:04:43.909Z,0.80
2022-11-11T06:07:54.575Z,0.80
2022-11-11T06:10:58.671Z,0.80
2022-11-11T06:14:02.915Z,0.80
2022-11-11T06:17:06.700Z,0.95
2022-11-11T06:20:10.717Z,0.93
2022-11-11T06:23:14.846Z,0.93
2022-11-11T06:26:19.218Z,0.80
2022-11-11T06:29:23.353Z,0.80
2022-11-11T06:32:28.474Z,0.90
2022-11-11T06:35:32.477Z,1.08
2022-11-11T06:38:36.458Z,0.60
2022-11-11T06:41:40.579Z,0.80
2022-11-11T06:44:44.923Z,1.07
2022-11-11T06:47:48.731Z,0.93
2022-11-11T06:50:52.744Z,0.93
2022-11-11T06:53:56.703Z,1.60
2022-11-11T06:57:05.801Z,2.17
2022-11-11T07:00:12.775Z,2.00
2022-11-11T07:03:25.224Z,1.83
2022-11-11T07:06:29.229Z,1.95
2022-11-11T07:09:32.827Z,1.88
2022-11-11T07:12:36.924Z,2.40
2022-11-11T07:15:41.825Z,3.27
2022-11-11T07:18:45.634Z,2.03
2022-11-11T07:21:49.542Z,1.88
2022-11-11T07:24:53.745Z,1.77
2022-11-11T07:27:59.508Z,1.75
2022-11-11T07:31:04.214Z,2.00
2022-11-11T07:34:08.700Z,1.70
2022-11-11T07:37:12.391Z,1.90
2022-11-11T07:40:17.752Z,1.67
2022-11-11T07:43:21.568Z,1.90
2022-11-11T07:46:25.945Z,1.80
2022-11-11T07:49:29.946Z,1.65
2022-11-11T07:52:33.918Z,2.00
2022-11-11T07:55:38.332Z,1.63
2022-11-11T07:58:42.481Z,1.75
2022-11-11T08:01:46.371Z,1.80
2022-11-11T08:04:55.005Z,1.60
2022-11-11T08:08:04.586Z,1.60
2022-11-11T08:11:08.627Z,1.80
2022-11-11T08:14:12.424Z,1.80
2022-11-11T08:17:16.052Z,1.57
2022-11-11T08:20:19.921Z,1.85
2022-11-11T08:23:59.315Z,1.80
2022-11-11T08:26:56.753Z,1.50
2022-11-11T08:30:00.730Z,1.52
2022-11-11T08:33:31.770Z,1.53
2022-11-11T08:36:29.680Z,1.63
2022-11-11T08:39:33.666Z,1.67
2022-11-11T08:42:37.561Z,1.52
2022-11-11T08:45:41.337Z,1.63
2022-11-11T08:48:45.090Z,1.40
2022-11-11T08:51:49.532Z,1.52
2022-11-11T08:54:53.347Z,1.75
2022-11-11T08:57:58.423Z,1.40
2022-11-11T09:01:04.476Z,1.50
2022-11-11T09:04:38.251Z,1.40
2022-11-11T09:07:33.164Z,1.00
2022-11-11T09:10:37.629Z,1.33
2022-11-11T09:13:42.040Z,1.40
2022-11-11T09:16:46.116Z,1.30
2022-11-11T09:19:49.834Z,1.40
2022-11-11T09:22:53.504Z,1.45
2022-11-11T09:25:58.238Z,1.50
2022-11-11T09:29:02.564Z,2.13
2022-11-11T09:32:06.252Z,1.33
2022-11-11T09:35:10.002Z,1.30
2022-11-11T09:38:13.909Z,1.30
2022-11-11T09:41:23.844Z,1.38
2022-11-11T09:44:33.916Z,1.50
2022-11-11T09:47:50.050Z,1.42
2022-11-11T09:50:56.536Z,1.10
2022-11-11T09:54:03.874Z,1.50
2022-11-11T09:57:12.069Z,1.52
2022-11-11T10:00:22.949Z,1.13
2022-11-11T10:03:30.717Z,1.48
2022-11-11T10:06:35.879Z,1.40
2022-11-11T10:10:00.525Z,1.40
2022-11-11T10:13:10.848Z,1.13
2022-11-11T10:16:14.991Z,1.25
2022-11-11T10:19:19.053Z,1.40
2022-11-11T10:22:27.850Z,1.30
2022-11-11T10:25:31.958Z,1.20
2022-11-11T10:28:37.427Z,1.08
2022-11-11T10:31:41.965Z,1.10
2022-11-11T10:34:46.019Z,1.10
2022-11-11T10:37:56.459Z,1.20
2022-11-11T10:41:10.198Z,1.30
2022-11-11T10:44:21.062Z,1.02
2022-11-11T10:47:33.413Z,1.40
2022-11-11T10:50:43.919Z,1.05
2022-11-11T10:54:14.723Z,1.40
2022-11-11T10:57:23.962Z,1.80
2022-11-11T11:00:28.891Z,1.83
2022-11-11T11:03:55.429Z,1.80
2022-11-11T11:07:00.447Z,2.03
2022-11-11T11:10:11.676Z,2.70
2022-11-11T11:13:17.776Z,2.85
2022-11-11T11:16:37.510Z,2.90
2022-11-11T11:19:41.807Z,3.10
2022-11-11T11:22:50.243Z,3.45
2022-11-11T11:25:57.023Z,2.83
2022-11-11T11:29:03.829Z,3.50
2022-11-11T11:32:15.499Z,3.08
2022-11-11T11:35:30.221Z,3.40
2022-11-11T11:38:42.031Z,3.47
2022-11-11T11:41:51.861Z,3.20
2022-11-11T11:44:55.870Z,3.13
2022-11-11T11:48:36.228Z,3.15
2022-11-11T11:51:47.460Z,3.15
2022-11-11T11:55:10.046Z,3.55
2022-11-11T11:58:17.053Z,3.20
2022-11-11T12:01:44.959Z,3.13
2022-11-11T12:05:24.862Z,3.17
2022-11-11T12:08:47.236Z,3.22
2022-11-11T12:11:51.401Z,3.10
2022-11-11T12:15:04.594Z,3.00
2022-11-11T12:18:17.963Z,3.30
2022-11-11T12:21:24.012Z,2.90
2022-11-11T12:24:37.158Z,3.08
2022-11-11T12:27:44.138Z,2.83
2022-11-11T12:30:51.554Z,2.90
2022-11-11T12:34:14.432Z,2.78
2022-11-11T12:37:29.501Z,2.95
2022-11-11T12:40:53.507Z,2.80
2022-11-11T12:44:08.112Z,2.53
2022-11-11T12:47:28.000Z,2.80
2022-11-11T12:51:05.436Z,3.13
2022-11-11T12:54:18.724Z,3.05
2022-11-11T12:57:26.441Z,2.50
2022-11-11T13:00:31.061Z,2.92
2022-11-11T13:03:41.207Z,2.50
2022-11-11T13:06:50.884Z,2.60
2022-11-11T13:10:13.745Z,2.75
2022-11-11T13:13:26.003Z,2.50
2022-11-11T13:16:30.413Z,2.70
2022-11-11T13:19:45.550Z,2.70
2022-11-11T13:22:50.699Z,2.60
2022-11-11T13:26:01.368Z,3.00
2022-11-11T13:29:26.177Z,2.67
2022-11-11T13:32:38.408Z,2.60
2022-11-11T13:35:44.469Z,2.70
2022-11-11T13:38:56.560Z,2.95
2022-11-11T13:42:01.276Z,2.83
2022-11-11T13:45:06.263Z,2.60
2022-11-11T13:48:42.798Z,2.70
2022-11-11T13:51:56.948Z,2.53
2022-11-11T13:55:24.502Z,2.90
2022-11-11T13:58:33.601Z,2.67
2022-11-11T14:01:42.678Z,2.53
2022-11-11T14:05:02.703Z,2.80
2022-11-11T14:08:07.835Z,2.70
2022-11-11T14:11:26.767Z,2.65
2022-11-11T14:14:37.353Z,2.42
2022-11-11T14:17:44.606Z,2.17
2022-11-11T14:20:49.893Z,2.63
2022-11-11T14:23:54.860Z,2.50
2022-11-11T14:27:00.634Z,2.97
2022-11-11T14:30:04.748Z,2.47
2022-11-11T14:33:29.027Z,2.40
2022-11-11T14:36:44.708Z,2.20
2022-11-11T14:39:53.868Z,2.33
2022-11-11T14:42:58.429Z,2.78
2022-11-11T14:46:03.872Z,2.33
2022-11-11T14:49:08.442Z,2.63
2022-11-11T14:52:31.252Z,2.65
2022-11-11T14:55:36.067Z,2.33
2022-11-11T14:58:40.054Z,2.65
2022-11-11T15:01:45.582Z,2.30
2022-11-11T15:04:49.457Z,2.53
2022-11-11T15:07:56.857Z,2.45
2022-11-11T15:11:03.843Z,2.37
2022-11-11T15:14:11.094Z,2.08
2022-11-11T15:17:30.472Z,2.40
2022-11-11T15:20:49.706Z,2.35
2022-11-11T15:24:17.017Z,2.20
2022-11-11T15:27:32.536Z,2.30
2022-11-11T15:30:53.011Z,2.00
2022-11-11T15:34:16.199Z,2.58
2022-11-11T15:37:20.636Z,1.80
2022-11-11T15:40:25.808Z,1.85
2022-11-11T15:43:31.810Z,2.03
2022-11-11T15:46:39.954Z,2.20
2022-11-11T15:49:45.591Z,2.13
2022-11-11T15:52:54.855Z,2.30
2022-11-11T15:56:00.804Z,2.38
2022-11-11T15:59:18.331Z,1.97
2022-11-11T16:02:28.011Z,2.15
2022-11-11T16:05:32.781Z,2.20
2022-11-11T16:08:36.630Z,2.20
2022-11-11T16:11:41.759Z,2.28
2022-11-11T16:14:47.034Z,2.10
2022-11-11T16:17:51.744Z,2.20
2022-11-11T16:21:01.307Z,2.17
2022-11-11T16:24:09.580Z,2.25
2022-11-11T16:27:17.949Z,2.10
2022-11-11T16:30:30.234Z,1.80
2022-11-11T16:33:35.128Z,1.98
2022-11-11T16:36:57.685Z,1.83
2022-11-11T16:40:20.229Z,1.88
2022-11-11T16:43:26.312Z,1.90
2022-11-11T16:46:36.394Z,1.87
2022-11-11T16:49:42.094Z,1.85
2022-11-11T16:52:46.414Z,1.90
2022-11-11T16:55:50.554Z,2.10
2022-11-11T16:59:00.739Z,1.75
2022-11-11T17:02:14.899Z,1.97
2022-11-11T17:05:19.129Z,1.85
2022-11-11T17:08:29.081Z,2.20
2022-11-11T17:11:39.272Z,1.92
2022-11-11T17:14:43.619Z,2.00
2022-11-11T17:17:48.064Z,1.90
2022-11-11T17:20:52.425Z,2.47
2022-11-11T17:23:56.656Z,2.10
2022-11-11T17:27:00.270Z,1.85
2022-11-11T17:30:04.543Z,2.05
2022-11-11T17:33:09.301Z,1.90
2022-11-11T17:36:13.165Z,1.83
2022-11-11T17:39:17.358Z,1.88
2022-11-11T17:42:21.246Z,1.88
2022-11-11T17:45:25.390Z,2.08
2022-11-11T17:48:29.248Z,2.00
2022-11-11T17:51:33.773Z,1.90
2022-11-11T17:54:38.121Z,2.00
2022-11-11T17:57:42.408Z,1.70
2022-11-11T18:00:47.073Z,1.88
2022-11-11T18:03:55.127Z,2.13
2022-11-11T18:06:59.567Z,2.05
2022-11-11T18:10:04.148Z,2.00
2022-11-11T18:13:08.024Z,1.90
2022-11-11T18:16:17.182Z,1.90
2022-11-11T18:19:21.329Z,2.10
2022-11-11T18:22:25.671Z,1.90
2022-11-11T18:25:29.887Z,1.95
2022-11-11T18:28:35.839Z,2.08
2022-11-11T18:31:39.914Z,1.85
2022-11-11T18:34:43.904Z,2.00
2022-11-11T18:37:47.650Z,1.95
2022-11-11T18:40:51.905Z,2.17
2022-11-11T18:43:57.738Z,2.33
2022-11-11T18:47:01.981Z,2.20
2022-11-11T18:50:06.300Z,2.65
2022-11-11T18:53:10.584Z,2.40
2022-11-11T18:56:16.254Z,2.45
2022-11-11T18:59:20.738Z,2.45
2022-11-11T19:02:25.301Z,2.40
2022-11-11T19:05:29.476Z,3.17
2022-11-11T19:08:34.572Z,2.23
2022-11-11T19:11:39.954Z,3.10
2022-11-11T19:14:43.866Z,2.60
2022-11-11T19:17:48.233Z,3.00
2022-11-11T19:20:52.345Z,2.85
2022-11-11T19:23:57.153Z,2.97
2022-11-11T19:27:01.071Z,2.65
2022-11-11T19:30:05.303Z,3.08
2022-11-11T19:33:09.636Z,3.13
2022-11-11T19:36:15.004Z,3.35
2022-11-11T19:39:19.611Z,2.70
2022-11-11T19:42:23.818Z,2.72
2022-11-11T19:45:28.054Z,4.85
2022-11-11T19:48:32.657Z,3.00
2022-11-11T19:51:37.190Z,3.20
2022-11-11T19:54:41.079Z,3.10
2022-11-11T19:57:45.343Z,3.55
2022-11-11T20:00:49.878Z,2.88
2022-11-11T20:03:54.594Z,2.95
2022-11-11T20:06:58.575Z,3.03
2022-11-11T20:10:03.250Z,2.90
2022-11-11T20:13:07.320Z,3.08
2022-11-11T20:16:11.908Z,2.83
2022-11-11T20:19:16.209Z,3.00
2022-11-11T20:22:20.329Z,3.45
2022-11-11T20:25:24.270Z,3.10
2022-11-11T20:28:28.243Z,2.90
2022-11-11T20:31:32.305Z,3.17
2022-11-11T20:34:37.130Z,3.38
2022-11-11T20:37:41.326Z,3.50
2022-11-11T20:40:45.698Z,3.20
2022-11-11T20:43:49.826Z,3.83
2022-11-11T20:46:53.832Z,3.55
2022-11-11T20:49:57.630Z,3.20
2022-11-11T20:53:01.518Z,3.58
2022-11-11T20:56:06.547Z,3.63
2022-11-11T20:59:11.053Z,3.30
2022-11-11T21:02:18.653Z,3.35
2022-11-11T21:05:26.761Z,3.65
2022-11-11T21:08:32.920Z,3.63
2022-11-11T21:11:36.855Z,3.70
2022-11-11T21:14:41.171Z,3.55
2022-11-11T21:17:44.962Z,3.60
2022-11-11T21:20:49.091Z,3.53
2022-11-11T21:23:57.718Z,3.85
2022-11-11T21:27:01.987Z,3.23
2022-11-11T21:30:06.151Z,3.60
2022-11-11T21:33:10.734Z,3.75
2022-11-11T21:36:14.710Z,3.30
2022-11-11T21:39:19.969Z,3.22
2022-11-11T21:42:23.702Z,3.43
2022-11-11T21:45:27.588Z,3.10
2022-11-11T21:48:32.018Z,3.70
2022-11-11T21:51:36.710Z,3.58
2022-11-11T21:54:40.816Z,3.30
2022-11-11T21:57:44.771Z,3.27
2022-11-11T22:00:48.622Z,3.60
2022-11-11T22:03:53.853Z,3.50
2022-11-11T22:06:57.665Z,2.97
2022-11-11T22:10:01.512Z,3.50
2022-11-11T22:13:05.649Z,3.17
2022-11-11T22:16:10.988Z,3.53
2022-11-11T22:19:15.841Z,3.72
2022-11-11T22:22:19.653Z,3.05
2022-11-11T22:25:23.824Z,3.50
2022-11-11T22:28:28.167Z,3.37
2022-11-11T22:31:34.741Z,3.38
2022-11-11T22:34:38.915Z,3.13
2022-11-11T22:37:42.772Z,3.35
2022-11-11T22:40:46.886Z,3.20
2022-11-11T22:44:00.506Z,3.23
2022-11-11T22:47:05.073Z,3.40
2022-11-11T22:50:09.088Z,3.00
2022-11-11T22:53:14.608Z,3.03
2022-11-11T22:56:19.671Z,3.30
2022-11-11T22:59:25.032Z,3.27
2022-11-11T23:02:29.098Z,3.58
2022-11-11T23:05:32.880Z,3.35
2022-11-11T23:08:37.410Z,2.97
2022-11-11T23:11:41.474Z,3.38
2022-11-11T23:14:45.202Z,3.43
2022-11-11T23:17:49.055Z,3.30
2022-11-11T23:21:00.887Z,3.10
2022-11-11T23:24:05.476Z,3.28
2022-11-11T23:27:09.431Z,3.55
2022-11-11T23:30:13.297Z,3.60
2022-11-11T23:33:17.447Z,3.10
2022-11-11T23:36:22.797Z,3.35
2022-11-11T23:39:27.491Z,3.70
2022-11-11T23:42:31.723Z,3.53
2022-11-11T23:45:35.751Z,4.30
2022-11-11T23:48:39.844Z,4.20
2022-11-11T23:51:44.062Z,4.10
2022-11-11T23:54:47.846Z,4.13
2022-11-11T23:57:51.834Z,4.15
